createdAt,value
2019-02-11T00:02:47.660Z,6.10
2019-02-11T00:10:54.970Z,6.20
2019-02-11T00:14:58.694Z,6.20
2019-02-11T00:19:02.490Z,6.30
2019-02-11T00:27:09.786Z,6.20
2019-02-11T00:31:14.057Z,6.20
2019-02-11T00:35:17.826Z,6.20
2019-02-11T00:39:21.618Z,6.20
2019-02-11T00:43:25.374Z,6.10
2019-02-11T00:51:32.622Z,6.00
2019-02-11T00:55:36.391Z,6.00
2019-02-11T00:59:40.110Z,6.10
2019-02-11T01:03:44.157Z,6.10
2019-02-11T01:07:48.582Z,6.20
2019-02-11T01:11:52.290Z,6.20
2019-02-11T01:15:56.034Z,6.10
2019-02-11T01:19:59.754Z,6.00
2019-02-11T01:24:03.809Z,5.80
2019-02-11T01:28:07.798Z,5.70
2019-02-11T01:32:11.802Z,5.70
2019-02-11T01:36:15.538Z,5.60
2019-02-11T01:44:22.590Z,5.50
2019-02-11T01:48:26.326Z,5.60
2019-02-11T01:56:33.350Z,5.50
2019-02-11T02:04:40.382Z,5.40
2019-02-11T02:08:44.102Z,5.40
2019-02-11T02:16:51.470Z,5.20
2019-02-11T02:24:58.502Z,5.10
2019-02-11T02:29:02.531Z,5.10
2019-02-11T02:37:09.523Z,4.90
2019-02-11T02:41:13.250Z,4.80
2019-02-11T02:49:20.462Z,4.70
2019-02-11T02:53:24.190Z,4.70
2019-02-11T03:13:41.630Z,4.50
2019-02-11T03:17:45.372Z,4.40
2019-02-11T03:21:49.098Z,4.30
2019-02-11T03:33:59.958Z,4.40
2019-02-11T03:38:03.994Z,4.40
2019-02-11T03:42:08.317Z,4.30
2019-02-11T03:46:12.099Z,4.30
2019-02-11T03:58:22.436Z,4.20
2019-02-11T04:06:29.712Z,4.20
2019-02-11T04:10:33.758Z,4.20
2019-02-11T04:18:41.031Z,4.20
2019-02-11T04:22:44.751Z,4.20
2019-02-11T04:26:48.479Z,4.10
2019-02-11T04:38:59.102Z,4.30
2019-02-11T04:43:02.830Z,4.60
2019-02-11T04:47:07.380Z,4.70
2019-02-11T04:51:11.182Z,4.90
2019-02-11T04:55:14.921Z,4.90
2019-02-11T05:03:22.290Z,5.10
2019-02-11T05:07:26.012Z,5.20
2019-02-11T05:11:29.760Z,5.30
2019-02-11T05:15:33.502Z,5.40
2019-02-11T05:23:40.537Z,5.70
2019-02-11T05:27:44.832Z,5.70
2019-02-11T05:31:48.634Z,5.80
2019-02-11T05:35:52.374Z,5.80
2019-02-11T05:43:59.755Z,5.90
2019-02-11T06:00:15.603Z,5.90
2019-02-11T06:08:22.889Z,5.90
2019-02-11T06:12:26.623Z,6.00
2019-02-11T06:20:33.887Z,6.00
2019-02-11T06:24:37.636Z,6.00
2019-02-11T06:28:41.999Z,6.00
2019-02-11T06:44:55.686Z,6.20
2019-02-11T06:53:02.730Z,6.20
2019-02-11T06:57:06.465Z,6.30
2019-02-11T07:01:10.198Z,6.30
2019-02-11T07:05:14.171Z,6.40
2019-02-11T07:09:17.904Z,6.40
2019-02-11T07:13:21.666Z,6.40
2019-02-11T07:21:29.374Z,6.30
2019-02-11T07:29:36.414Z,6.20
2019-02-11T07:33:40.138Z,6.00
2019-02-11T07:37:44.171Z,5.90
2019-02-11T07:42:05.943Z,5.90
2019-02-11T07:46:29.094Z,5.70
2019-02-11T07:50:32.846Z,5.70
2019-02-11T07:54:36.566Z,5.60
2019-02-11T08:10:50.168Z,5.00
2019-02-11T08:14:54.154Z,5.00
2019-02-11T08:18:58.199Z,5.20
2019-02-11T08:27:05.233Z,5.80
2019-02-11T08:31:09.030Z,6.00
2019-02-11T08:35:12.843Z,6.30
2019-02-11T08:39:16.847Z,6.40
2019-02-11T08:47:23.878Z,6.50
2019-02-11T08:51:27.703Z,6.50
2019-02-11T08:55:31.427Z,6.50
2019-02-11T09:03:38.450Z,6.70
2019-02-11T09:07:42.590Z,6.70
2019-02-11T09:11:46.326Z,6.80
2019-02-11T09:15:55.422Z,6.80
2019-02-11T09:19:56.135Z,6.90
2019-02-11T09:24:00.525Z,7.20
2019-02-11T09:28:04.406Z,7.20
2019-02-11T09:32:08.145Z,7.60
2019-02-11T09:36:11.946Z,7.50
2019-02-11T09:40:16.058Z,7.90
2019-02-11T09:44:19.874Z,8.00
2019-02-11T09:48:23.598Z,7.90
2019-02-11T09:52:27.441Z,8.10
2019-02-11T09:56:31.715Z,8.10
2019-02-11T10:00:35.526Z,8.30
2019-02-11T10:04:39.261Z,8.70
2019-02-11T10:08:42.986Z,8.70
2019-02-11T10:12:46.726Z,9.20
2019-02-11T10:16:50.802Z,10.90
2019-02-11T10:20:54.526Z,12.70
2019-02-11T10:24:58.273Z,14.40
2019-02-11T10:29:02.011Z,15.50
2019-02-11T10:33:06.260Z,16.10
2019-02-11T10:37:10.346Z,15.60
2019-02-11T10:41:14.062Z,15.40
2019-02-11T10:45:17.804Z,15.10
2019-02-11T10:49:21.534Z,14.30
2019-02-11T10:53:25.294Z,14.80
2019-02-11T10:57:29.064Z,15.90
2019-02-11T11:01:32.927Z,16.10
2019-02-11T11:09:40.038Z,12.20
2019-02-11T11:13:43.846Z,10.90
2019-02-11T11:17:47.586Z,10.70
2019-02-11T11:21:51.343Z,10.70
2019-02-11T11:25:55.392Z,10.50
2019-02-11T11:29:59.130Z,9.70
2019-02-11T11:34:02.874Z,10.30
2019-02-11T11:38:06.673Z,13.10
2019-02-11T11:42:13.334Z,13.20
2019-02-11T11:46:17.084Z,15.20
2019-02-11T11:50:21.232Z,15.80
2019-02-11T11:54:24.990Z,17.10
2019-02-11T11:58:28.722Z,18.50
2019-02-11T12:02:32.455Z,20.00
2019-02-11T12:06:36.542Z,20.10
2019-02-11T12:10:40.248Z,20.10
2019-02-11T12:14:44.068Z,21.20
2019-02-11T12:22:51.155Z,19.20
2019-02-11T12:26:54.889Z,19.30
2019-02-11T12:39:06.401Z,19.70
2019-02-11T12:43:10.138Z,18.20
2019-02-11T13:07:33.217Z,13.50
2019-02-11T13:11:37.234Z,14.70
2019-02-11T13:16:00.243Z,15.20
2019-02-11T13:23:50.745Z,16.50
2019-02-11T13:27:54.486Z,16.10
2019-02-11T13:31:58.221Z,17.60
2019-02-11T13:56:21.529Z,15.80
2019-02-11T14:00:28.693Z,14.50
2019-02-11T14:08:35.729Z,12.40
2019-02-11T14:16:42.818Z,10.10
2019-02-11T14:41:05.519Z,9.10
2019-02-11T14:45:10.114Z,9.50
2019-02-11T14:49:13.847Z,10.00
2019-02-11T14:57:21.175Z,9.80
2019-02-11T15:01:24.907Z,9.00
2019-02-11T15:25:45.303Z,7.60
2019-02-11T15:29:49.026Z,7.50
2019-02-11T15:37:56.063Z,7.60
2019-02-11T15:46:03.086Z,7.70
2019-02-11T16:02:17.562Z,7.70
2019-02-11T16:18:32.346Z,6.70
2019-02-11T16:22:36.075Z,6.50
2019-02-11T16:46:56.530Z,5.60
2019-02-11T16:55:03.950Z,5.50
2019-02-11T16:59:07.703Z,5.30
2019-02-11T17:07:15.034Z,5.10
2019-02-11T17:11:19.099Z,5.00
2019-02-11T17:19:26.124Z,5.10
2019-02-11T17:27:33.202Z,5.20
2019-02-11T17:31:36.936Z,5.30
2019-02-11T17:39:43.961Z,5.30
2019-02-11T17:43:47.687Z,5.30
2019-02-11T18:04:05.118Z,5.20
2019-02-11T18:20:19.415Z,4.80
2019-02-11T18:24:23.382Z,4.80
2019-02-11T18:52:47.314Z,4.90
2019-02-11T18:56:51.390Z,5.00
2019-02-11T19:00:55.480Z,4.90
2019-02-11T19:04:59.211Z,4.90
2019-02-11T19:09:04.322Z,5.00
2019-02-11T19:13:08.114Z,5.20
2019-02-11T19:17:11.855Z,5.20
2019-02-11T19:25:18.874Z,5.30
2019-02-11T19:41:32.530Z,5.40
2019-02-11T19:49:39.571Z,5.40
2019-02-11T19:53:43.317Z,5.20
2019-02-11T20:01:51.051Z,5.00
2019-02-11T20:18:04.807Z,4.80
2019-02-11T20:22:08.539Z,4.70
2019-02-11T20:30:17.223Z,4.30
2019-02-11T20:34:20.943Z,4.20
2019-02-11T20:42:28.766Z,4.10
2019-02-11T20:54:39.151Z,4.20
2019-02-11T20:58:42.915Z,4.30
2019-02-11T21:02:47.296Z,4.30
2019-02-11T21:06:51.025Z,4.10
2019-02-11T21:10:54.800Z,3.90
2019-02-11T21:19:02.082Z,3.60
2019-02-11T21:23:07.739Z,3.50
2019-02-11T21:27:12.392Z,3.40
2019-02-11T21:31:16.118Z,3.30
2019-02-11T21:35:19.854Z,3.20
2019-02-11T21:39:23.622Z,3.10
2019-02-11T21:43:27.334Z,3.00
2019-02-11T21:47:31.066Z,3.10
2019-02-11T21:51:34.789Z,3.10
2019-02-11T21:55:38.520Z,3.10
2019-02-11T21:59:42.250Z,3.10
2019-02-11T22:03:46.246Z,3.40
2019-02-11T22:07:50.330Z,3.50
2019-02-11T22:11:54.054Z,3.80
2019-02-11T22:15:57.790Z,4.10
2019-02-11T22:20:01.826Z,4.10
2019-02-11T22:24:05.550Z,4.40
2019-02-11T22:28:09.294Z,4.40
2019-02-11T22:36:16.323Z,4.50
2019-02-11T22:40:20.222Z,4.60
2019-02-11T22:44:24.249Z,4.60
2019-02-11T22:48:27.962Z,4.60
2019-02-11T22:52:31.928Z,4.60
2019-02-11T22:56:35.966Z,4.50
2019-02-11T23:00:49.827Z,4.70
2019-02-11T23:04:53.870Z,4.80
2019-02-11T23:08:57.598Z,4.90
2019-02-11T23:13:01.314Z,4.80
2019-02-11T23:17:05.213Z,4.70
2019-02-11T23:21:08.986Z,4.70
2019-02-11T23:25:12.714Z,4.70
2019-02-11T23:29:16.522Z,4.70
2019-02-11T23:33:20.879Z,4.60
2019-02-11T23:45:31.352Z,4.50
2019-02-11T23:49:35.926Z,4.20
2019-02-11T23:53:39.653Z,4.40
2019-02-11T23:57:43.389Z,4.40
